Details for Ryanair at EGNX




Go Back


Latest METAR
Local Time

EGNX 180620Z 24012KT 9999 BKN020 17/13 Q1018
18/08/2018, 07:27:29

Description
Results
Ryanair Logo
Number of Pilots based at EGNX
1 Pilots Based here
Number of Ryanair Flights Departed from EGNX
14 Flights Departed
Number of Ryanair Flights Arrived at EGNX
12 Flights Arrived
Number of Ryanair Schedules Departing from EGNX
80 Schedules
Number of Ryanair Schedules Arriving at EGNX
80 Schedules
Number of Ryanair Schedules Departing from EGNX availible today
25 Schedules Today
Number of Ryanair Schedules Arriving at EGNX availible today
25 Schedules Today
Average Landing Rate at EGNX
-204 fpm
Ryanair Average Landing Rate at EGNX
-190 fpm
Total Fuel Purchased at EGNX by Ryanair
65,461.11 kgs / 144,315.56 lbs

Pilots Based at EGNX


Pilot ID
Pilot Name
Pilot Rank
No. of Flights
No. of Flying Hours
Stephen Whyles
138
275.49
Content